Flight Track Log - Related Links

Times and Time Zones

All times are in EDT time to prevent confusion due to time zone crossing. See the QFA723 flight status page for this flight to view local times or setup timezone preferences in your user account.

Time Position Orientation Groundspeed Altitude Reporting Facility
EDT Latitude Longitude Course Direction KTS MPH feet Rate Location/Type
Sat 08:29:26 PM -34.9400 138.5370 North  Level FlightAware ADS-B
Sat 08:34:26 PM -34.9410 138.5370 180° South 2 2 61 Level FlightAware ADS-B
Sat 08:37:00 PM -34.6832 138.4159 339° North  Level Estimated
Sat 08:37:21 PM -34.9420 138.5360 339° North 11 13  Level FlightAware ADS-B
Sat 08:37:41 PM -34.9420 138.5370 90° East 9 10 130 Level FlightAware ADS-B
Sat 08:38:21 PM -34.9410 138.5390 59° Northeast 10 12 137 Level FlightAware ADS-B
Sat 08:38:58 PM -34.9400 138.5400 39° Northeast 9 10 152 Level FlightAware ADS-B
Sat 08:41:00 PM -34.7419 138.4468 339° North  Level Estimated
Sat 08:42:00 PM -34.6445 138.4012 339° North  Level Estimated
Sat 08:42:06 PM -34.9400 138.5430 339° North 6 7  Level FlightAware ADS-B
Sat 08:42:51 PM -34.9410 138.5430 180° South 415 Level FlightAware ADS-B
Sat 08:43:21 PM -34.9420 138.5410 239° Southwest 62 71 635 Level FlightAware ADS-B
Sat 08:43:51 PM -34.9550 138.5220 230° Southwest 168 193 982 Level FlightAware ADS-B
Sat 08:44:16 PM -34.9670 138.5040 225° Southwest 158 182 900 2,049 Climbing FlightAware ADS-B
Sat 08:44:32 PM -34.9750 138.4930 228° Southwest 167 192 1,400 1,950 Climbing FlightAware ADS-B
Sat 08:44:56 PM -34.9890 138.4720 231° Southwest 195 224 2,200 2,778 Climbing FlightAware ADS-B
Sat 08:45:26 PM -34.9948 138.4375 231° Southwest 213 245 3,900 2,862 Climbing Aus ATC (RADAR)
Sat 08:46:01 PM -34.9619 138.4075 323° Northwest 256 295 5,300 1,538 Climbing Aus ATC (RADAR)
Sat 08:46:05 PM -34.9570 138.4060 323° Northwest 273 314 4,900 1,371 Descending FlightAware ADS-B
Sat 08:46:36 PM -34.9170 138.3885 323° Northwest 294 338 6,100 1,355 Climbing Aus ATC (RADAR)
Sat 08:46:36 PM -34.9170 138.3890 323° Northwest 310 357 5,600 1,400 Descending FlightAware ADS-B
Sat 08:47:06 PM -34.8760 138.3710 340° North 329 379 6,800 2,615 Climbing FlightAware ADS-B
Sat 08:47:15 PM -34.8600 138.3640 340° North 341 392 7,300 3,000 Climbing FlightAware ADS-B
Sat 08:47:46 PM -34.8140 138.3440 340° North 342 394 8,800 3,000 Climbing FlightAware ADS-B
Sat 08:48:25 PM -34.7530 138.3170 340° North 358 412 10,800 2,700 Climbing FlightAware ADS-B
Sat 08:49:06 PM -34.6880 138.2890 340° North 376 433 12,400 2,442 Climbing FlightAware ADS-B
Sat 08:49:51 PM -34.6130 138.2560 340° North 381 438 14,300 2,850 Climbing FlightAware ADS-B
Sat 08:50:26 PM -34.5519 138.2291 340° North 395 455 16,200 2,333 Climbing Aus ATC (RADAR)
Sat 08:50:45 PM -34.5180 138.2140 340° North 406 467 16,400 1,800 Climbing FlightAware ADS-B
Sat 08:51:26 PM -34.4450 138.1830 341° North 410 472 18,000 2,176 Climbing FlightAware ADS-B
Sat 08:52:16 PM -34.3530 138.1430 340° North 428 493 19,700 2,357 Climbing FlightAware ADS-B
Sat 08:52:50 PM -34.2860 138.1141 340° North 433 498 21,300 1,800 Climbing Aus ATC (RADAR)
Sat 08:52:56 PM -34.2760 138.1100 340° North 440 506 20,900 1,149 Descending FlightAware ADS-B
Sat 08:53:37 PM -34.1970 138.0760 340° North 442 509 22,200 1,800 Climbing FlightAware ADS-B
Sat 08:54:16 PM -34.1200 138.0430 340° North 457 526 23,300 1,575 Climbing FlightAware ADS-B
Sat 08:54:57 PM -34.0390 138.0080 340° North 459 528 24,300 1,888 Climbing FlightAware ADS-B
Sat 08:55:45 PM -33.9359 137.9632 340° North 473 544 26,100 857 Climbing Aus ATC (RADAR)
Sat 08:55:53 PM -33.9290 137.9600 340° North 474 545 25,100 857 Descending FlightAware ADS-B
Sat 08:56:41 PM -33.8200 137.9140 341° North 477 549 26,900 1,773 Climbing FlightAware ADS-B
Sat 08:57:21 PM -33.7340 137.8770 340° North 483 556 27,700 1,259 Climbing FlightAware ADS-B
Sat 08:58:02 PM -33.6460 137.8400 341° North 496 571 28,600 1,500 Climbing FlightAware ADS-B
Sat 08:58:41 PM -33.5640 137.8050 341° North 493 567 29,700 2,512 Climbing FlightAware ADS-B
Sat 08:58:45 PM -33.5522 137.7999 341° North 493 567 30,400 2,294 Climbing Aus ATC (RADAR)
Sat 08:59:15 PM -33.4878 137.7729 341° North 492 566 31,000 600 Climbing Aus ATC (RADAR)
Sat 08:59:25 PM -33.4660 137.7630 341° North 492 566 30,800 1,350 Descending FlightAware ADS-B
Sat 08:59:55 PM -33.4024 137.7356 341° North 491 565 31,900 293 Climbing Aus ATC (RADAR)
Sat 09:00:06 PM -33.3940 137.7320 341° North 492 566 31,000 692 Descending FlightAware ADS-B
Sat 09:00:47 PM -33.2910 137.6890 341° North 491 565 32,500 1,535 Climbing FlightAware ADS-B
Sat 09:01:32 PM -33.1990 137.6510 341° North 495 570 33,200 1,023 Climbing FlightAware ADS-B
Sat 09:02:15 PM -33.1000 137.6090 341° North 496 571 34,000 1,636 Climbing FlightAware ADS-B
Sat 09:02:16 PM -33.1012 137.6079 341° North 497 572 34,400 2,229 Climbing Aus ATC (RADAR)
Sat 09:02:50 PM -33.0258 137.5771 341° North 492 566 35,300 900 Climbing Aus ATC (RADAR)
Sat 09:02:56 PM -33.0160 137.5740 341° North 495 570 35,000 1,733 Descending FlightAware ADS-B
Sat 09:03:35 PM -32.9309 137.5387 341° North 480 552 36,600 1,034 Climbing Aus ATC (RADAR)
Sat 09:03:54 PM -32.8940 137.5240 341° North 481 554 36,000  Descending FlightAware ADS-B
Sat 09:04:30 PM -32.8156 137.4894 341° North 485 558 36,600  Climbing Aus ATC (RADAR)
Sat 09:04:35 PM -32.8060 137.4870 341° North 485 558 36,000 -900 Descending FlightAware ADS-B
Sat 09:05:10 PM -32.7280 137.4540 340° North 485 558 36,000 450 Level FlightAware ADS-B
Sat 09:05:55 PM -32.6347 137.4142 340° North 487 560 36,600  Climbing Aus ATC (RADAR)
Sat 09:06:09 PM -32.6060 137.4040 340° North 485 558 36,000 -563 Descending FlightAware ADS-B
Sat 09:06:59 PM -32.5170 137.3650 340° North 485 558 36,000  Level FlightAware ADS-B
Sat 09:07:35 PM -32.4520 137.3370 340° North 485 558 36,000 444 Level FlightAware ADS-B
Sat 09:08:20 PM -32.3264 137.2902 340° North 487 560 36,600  Climbing Aus ATC (RADAR)
Sat 09:08:23 PM -32.3660 137.3000 340° North 485 558 36,000 -878 Descending FlightAware ADS-B
Sat 09:09:01 PM -32.2980 137.2710 340° North 485 558 36,000  Level FlightAware ADS-B
Sat 09:09:37 PM -32.2340 137.2430 340° North 485 558 36,000 435 Level FlightAware ADS-B
Sat 09:10:10 PM -32.0968 137.1894 340° North 480 552 36,500  Climbing Aus ATC (RADAR)
Sat 09:10:25 PM -32.1480 137.2060 340° North 485 558 36,000 -588 Descending FlightAware ADS-B
Sat 09:11:01 PM -32.0830 137.1780 340° North 485 558 36,000 357 Level FlightAware ADS-B
Sat 09:11:49 PM -31.8847 137.1104 340° North 484 557 36,500  Climbing Aus ATC (RADAR)
Sat 09:11:51 PM -31.9940 137.1400 340° North 485 558 36,000 171 Descending FlightAware ADS-B
Sat 09:12:24 PM -31.8126 137.0776 340° North 480 552 36,600  Climbing Aus ATC (RADAR)
Sat 09:12:27 PM -31.9290 137.1120 340° North 485 558 36,000 -706 Descending FlightAware ADS-B
Sat 09:13:15 PM -31.8430 137.0750 340° North 485 558 36,000  Level FlightAware ADS-B
Sat 09:13:52 PM -31.7770 137.0470 340° North 485 558 36,000 357 Level FlightAware ADS-B
Sat 09:14:39 PM -31.5320 136.9598 340° North 477 549 36,500  Climbing Aus ATC (RADAR)
Sat 09:14:40 PM -31.6910 137.0100 340° North 485 558 36,000 -811 Descending FlightAware ADS-B
Sat 09:15:16 PM -31.6260 136.9830 341° North 485 558 36,000  Level FlightAware ADS-B
Sat 09:15:54 PM -31.5580 136.9540 340° North 485 558 36,000 493 Level FlightAware ADS-B
Sat 09:16:29 PM -31.3003 136.8719 340° North 480 552 36,600 514 Climbing Aus ATC (RADAR)
Sat 09:17:04 PM -31.2262 136.8447 343° North 480 552 36,600  Level Aus ATC (RADAR)
Sat 09:17:44 PM -31.1414 136.8129 342° North 481 554 36,600 -15 Level Aus ATC (RADAR)
Sat 09:22:52 PM -30.4939 136.5554 341° North 36,000 -15 Descending Aus ATC (Calculated)
Sat 09:24:00 PM -30.3666 136.5052 341° North  Level FlightAware Approximate
Sat 09:25:00 PM -30.2543 136.4609 341° North  Level FlightAware Approximate
Sat 09:26:00 PM -30.1420 136.4168 341° North  Level FlightAware Approximate
Sat 09:26:01 PM -30.0910 136.3967 341° North 36,000  Level Aus ATC (Calculated)
Sat 09:26:26 PM -30.0406 136.3770 341° North 36,000  Level Aus ATC (Calculated)
Sat 09:27:51 PM -29.8642 136.3080 341° North 36,000  Level Aus ATC (Calculated)
Sat 09:28:00 PM -29.8646 136.3082 341° North  Level FlightAware Approximate
Sat 09:29:00 PM -29.7350 136.2577 341° North  Level FlightAware Approximate
Sat 09:29:21 PM -29.6468 136.2259 341° North 36,000  Level Aus ATC (Calculated)
Sat 09:30:56 PM -29.4497 136.1517 341° North 36,000  Level Aus ATC (Calculated)
Sat 09:31:00 PM -29.8350 136.2876 164° South  Level FlightAware Approximate
Sat 09:31:24 PM -29.3901 136.1295 341° North 36,000  Level Aus ATC (Calculated)
Sat 09:31:46 PM -29.3901 136.1295 341° North 36,000  Level Aus ATC (Calculated)
Sat 09:33:00 PM -29.5294 136.1808 162° South  Level FlightAware Approximate
Sat 09:33:16 PM -29.2170 136.0647 341° North 36,000  Level Aus ATC (Calculated)
Sat 09:34:55 PM -29.0078 135.9867 340° North 36,000  Level Aus ATC (Calculated)
Sat 09:35:00 PM -29.4127 136.1371 162° South  Level FlightAware Approximate
Sat 09:36:00 PM -29.1301 136.0319 162° South  Level FlightAware Approximate
Sat 09:37:00 PM -29.2429 136.0736 162° South  Level FlightAware Approximate
Sat 09:38:00 PM -29.1316 136.0268 342° North  Level Estimated
Sat 09:38:02 PM -28.6416 135.8509 340° North 36,000  Level Aus ATC (Calculated)
Sat 09:38:15 PM -28.6416 135.8509 340° North 36,000  Level Aus ATC (Calculated)
Sat 09:39:06 PM -28.5085 135.8019 340° North 36,000  Level Aus ATC (Calculated)
Sat 09:39:16 PM -28.5085 135.8019 340° North 36,000  Level Aus ATC (Calculated)
Sat 09:41:00 PM -28.3129 135.7299 342° North  Level FlightAware Approximate
Sat 09:41:20 PM -28.2670 135.7131 340° North 36,000  Level Aus ATC (Calculated)
Sat 09:43:00 PM -28.0788 135.6443 342° North  Level FlightAware Approximate
Sat 09:44:00 PM -27.9659 135.6031 342° North  Level FlightAware Approximate
Sat 09:45:00 PM -27.8530 135.5620 342° North  Level FlightAware Approximate
Sat 09:46:00 PM -27.7401 135.5210 342° North  Level FlightAware Approximate
Sat 09:46:20 PM -27.6326 135.4820 339° North 36,000  Level Aus ATC (Calculated)
Sat 09:47:35 PM -27.4648 135.4141 338° Northwest 36,000  Level Aus ATC (Calculated)
Sat 09:48:00 PM -27.4443 135.4140 342° North  Level FlightAware Approximate
Sat 09:48:51 PM -27.3877 135.3791 339° North 36,000  Level Aus ATC (Calculated)
Sat 09:49:00 PM -27.6206 135.4851 158° South  Level FlightAware Approximate
Sat 09:50:00 PM -27.5107 135.4350 158° South  Level FlightAware Approximate
Sat 09:51:00 PM -27.6175 135.4836 158° South  Level FlightAware Approximate
Sat 09:52:00 PM -27.5107 135.4350 338° Northwest  Level FlightAware Approximate
Sat 09:52:29 PM -27.0021 135.2047 339° North 36,000  Level Aus ATC (Calculated)
Sat 09:53:24 PM -26.8662 135.1450 339° North 27,900  Descending Aus ATC (Calculated)
Sat 09:53:24 PM -26.8662 135.1450 339° North 27,900 2,132 Level Aus ATC (Calculated)
Sat 09:54:58 PM -26.6896 135.0703 339° North 27,900 2,132 Level Aus ATC (Calculated)
Sat 09:55:00 PM -27.0375 135.2217 158° South  Level FlightAware Approximate
Sat 09:55:23 PM -26.6896 135.0703 339° North 27,900  Level Aus ATC (Calculated)
Sat 09:57:00 PM -26.8630 135.1468 158° South  Level FlightAware Approximate
Sat 09:57:12 PM -26.5540 135.0130 158° South 405 466 36,000  Level FlightAware ADS-B
Sat 09:57:56 PM -26.4480 134.9680 339° North 402 463 36,000  Level FlightAware ADS-B
Sat 09:58:00 PM -26.9702 135.1943 158° South  Level FlightAware Approximate
Sat 09:58:05 PM -26.3953 134.9462 339° North 27,900  Level Aus ATC (Calculated)
Sat 09:58:37 PM -26.3880 134.9430 339° North 400 460 36,000 6,395 Climbing FlightAware ADS-B
Sat 09:59:21 PM -26.3030 134.9070 339° North 397 457 36,000  Level FlightAware ADS-B
Sat 09:59:54 PM -26.2480 134.8840 339° North 394 453 36,000 -389 Level FlightAware ADS-B
Sat 10:00:14 PM -26.1598 134.8474 339° North 27,900 -411 Descending Aus ATC (Calculated)
Sat 10:03:00 PM -25.9135 134.7443 339° North  Level FlightAware Approximate
Sat 10:03:37 PM -25.8064 134.6999 339° North 27,900  Level Aus ATC (Calculated)
Sat 10:05:00 PM -25.6570 134.6379 339° North  Level FlightAware Approximate
Sat 10:05:13 PM -25.6296 134.6265 339° North 27,900  Level Aus ATC (Calculated)
Sat 10:07:00 PM -25.4370 134.5468 340° North  Level FlightAware Approximate
Sat 10:08:00 PM -25.3291 134.5022 340° North  Level FlightAware Approximate
Sat 10:08:13 PM -25.3349 134.5046 339° North 27,900  Level Aus ATC (Calculated)
Sat 10:09:23 PM -25.3190 134.4980 340° North 385 443 32,100 1,121 Climbing FlightAware ADS-B
Sat 10:09:50 PM -25.1580 134.4317 160° South 27,900 -3,568 Descending Aus ATC (Calculated)
Sat 10:10:00 PM -25.2220 134.4580 340° North 385 443 29,900 692 Climbing FlightAware ADS-B
Sat 10:10:42 PM -25.1540 134.4300 340° North 385 443 28,500 -1,282 Descending FlightAware ADS-B
Sat 10:11:13 PM -25.0400 134.3833 161° South 2,400 -787 Descending Aus ATC (Calculated)
Sat 10:11:43 PM -25.0600 134.3910 340° North 388 447 27,700 19,941 Climbing FlightAware ADS-B
Sat 10:11:48 PM -24.9621 134.3514 160° South 2,400 -4,263 Descending Aus ATC (Calculated)
Sat 10:12:21 PM -24.9830 134.3600 340° North 398 458 25,000 17,270 Climbing FlightAware ADS-B
Sat 10:13:02 PM -24.9150 134.3320 340° North 399 459 23,700 -1,952 Descending FlightAware ADS-B
Sat 10:13:44 PM -24.8450 134.3030 339° North 398 458 22,300 -2,023 Descending FlightAware ADS-B
Sat 10:13:50 PM -24.7284 134.2561 159° South 2,400 -2,045 Descending Aus ATC (Calculated)
Sat 10:14:28 PM -24.7690 134.2730 339° North 397 457 20,800 831 Climbing FlightAware ADS-B
Sat 10:14:48 PM -24.6504 134.2244 334° Northwest 2,400 -1,741 Descending Aus ATC (Calculated)
Sat 10:16:27 PM -24.4945 134.1611 332° Northwest 2,400 952 Level Aus ATC (Calculated)
Sat 10:17:00 PM -24.4126 134.1279 340° North  Level FlightAware Approximate
Sat 10:18:00 PM -24.3269 134.0932 340° North  Level FlightAware Approximate
Sat 10:18:48 PM -24.2607 134.0665 319° Northwest 2,400  Level Aus ATC (Calculated)
Sat 10:19:22 PM -24.2607 134.0665 319° Northwest 2,400 2,408 Level Aus ATC (Calculated)
Sat 10:21:00 PM -24.0840 133.9952 340° North  Level FlightAware Approximate
Sat 10:21:25 PM -24.1530 133.9640 340° North 307 353 8,700  Level FlightAware ADS-B
Sat 10:21:35 PM -24.1190 133.9440 332° Northwest 305 351 8,000 -2,049 Descending FlightAware ADS-B
Sat 10:22:06 PM -24.0810 133.9210 331° Northwest 302 348 7,300 -1,500 Descending FlightAware ADS-B
Sat 10:22:22 PM -23.9487 133.9408 202° Southwest 2,400 -1,655 Descending Aus ATC (Calculated)
Sat 10:22:35 PM -24.0410 133.8990 333° Northwest 298 343 6,500 5,415 Climbing FlightAware ADS-B
Sat 10:23:03 PM -24.0090 133.8860 333° Northwest 290 334 6,100 -764 Descending FlightAware ADS-B
Sat 10:23:30 PM -23.9770 133.8730 340° North 277 319 5,800 -632 Descending FlightAware ADS-B
Sat 10:24:00 PM -23.9410 133.8590 340° North 258 297 5,500 -814 Descending FlightAware ADS-B
Sat 10:24:29 PM -23.9100 133.8460 339° North 244 281 5,000 -1,245 Descending FlightAware ADS-B
Sat 10:24:53 PM -23.8810 133.8350 341° North 228 262 4,400 -1,154 Descending FlightAware ADS-B
Sat 10:25:21 PM -23.8570 133.8250 339° North 207 238 4,000 -1,038 Descending FlightAware ADS-B
Sat 10:25:21 PM -23.8005 133.8896 243° Southwest 1,800 -1,250 Descending Aus ATC (Calculated)
Sat 10:25:21 PM -23.8005 133.8896 243° Southwest 1,800 4,250 Level Aus ATC (Calculated)
Sat 10:25:45 PM -23.8350 133.8160 339° North 190 219 3,500 651 Climbing FlightAware ADS-B
Sat 10:26:44 PM -23.7910 133.8200 North 157 181 2,700 -791 Descending FlightAware ADS-B
Sat 10:27:54 PM -23.7880 133.8690 86° East 144 166 1,800 -767 Descending FlightAware ADS-B
Sat 10:28:10 PM -23.7940 133.8800 86° East 150 173 1,600 -750 Descending FlightAware ADS-B

Login

Don't have an account? Register now (free) for customized features, flight alerts, and more!